Impacts METAR Board
IDs:

KIAH - Houston/Bush Intl, TX, US

Updated at: 0400 UTC 22 Apr 2018
Potential Impact None Slight Moderate High
Time 21/16Z 21/17Z 21/18Z 21/19Z 21/20Z 21/21Z 21/22Z 21/23Z 22/00Z 22/01Z 22/02Z 22/03Z 22/04Z
Temp67 70 71 72 72 73 73 71 71 71 70 70 70
Dewpt61 63 65 65 68 67 68 68 69 68 68 69 69
Altim30.05 30.02 30.01 29.99 29.98 29.94 29.92 29.92 29.90 29.89 29.89 29.87 29.93
VIS10 10 10 10 10 10 10 4 7 7 7 7 2
CIG15 38 28 28 29 27 27 33 55 60 55 20 14
CoverBKNOVCOVCOVCBKNOVCOVCOVCOVCOVCOVCOVCOVC
FltCatMVFRVFRMVFRMVFRMVFRMVFRMVFRMVFRVFRVFRVFRMVFRIFR
WX-------------RA-RA BR-----RA-RARA BR
WDir1101101201101301401401401301301401500
WSpd11 12 12 10 12 15 17 14 12 10 15 14 0
WGst-- -- -- -- -- 23 -- -- -- -- -- 21 --
Raw hourly METARs
KIAH 211553Z 11011KT 10SM BKN015 BKN021 BKN029 19/16 A3005 RMK AO2 WSHFT 1536 RAB12E45 SLP177 P0000 T01940161
KIAH 211653Z 11012KT 10SM SCT015 SCT028 BKN038 OVC180 21/17 A3002 RMK AO2 SLP165 T02110172
KIAH 211753Z 12012KT 10SM SCT017 BKN028 BKN040 OVC180 22/18 A3001 RMK AO2 SLP160 60000 T02170183 10222 20167 58018
KIAH 211853Z 11010KT 10SM SCT017 BKN028 BKN050 OVC180 22/18 A2999 RMK AO2 SLP154 T02220183
KIAH 211953Z 13012KT 10SM SCT013 BKN029 BKN045 22/20 A2998 RMK AO2 RAB04E46 SLP150 P0000 T02220200
KIAH 212053Z 14015G23KT 10SM SCT013 BKN027 BKN075 OVC150 23/19 A2994 RMK AO2 SLP138 60000 T02280194 58023
KIAH 212153Z 14017KT 10SM -RA FEW013 BKN027 BKN050 OVC150 23/20 A2992 RMK AO2 RAB27 SLP133 P0000 T02280200
KIAH 212253Z 14014KT 4SM -RA BR SCT013 BKN033 OVC050 22/20 A2992 RMK AO2 RAE12B37 SLP132 P0000 T02170200
KIAH 212353Z COR 13012KT 7SM FEW010 SCT022 BKN055 OVC150 22/21 A2990 RMK AO2 RAE07 SLP125 VCSH E SCT V BKN P0000 60000 T02170206 10233 20211 58013
KIAH 220053Z 13010KT 7SM SCT009 BKN060 BKN100 OVC170 22/20 A2989 RMK AO2 SLP120 T02170200
KIAH 220153Z 14015KT 7SM -RA SCT009 BKN055 OVC090 21/20 A2989 RMK AO2 LTG DSNT N AND NW RAB33 SLP121 CB DSNT NW-N MOV E P0001 T02110200
KIAH 220253Z 15014G21KT 7SM -RA FEW009 BKN020 OVC047 21/21 A2987 RMK AO2 LTG DSNT NE RAE17B50 SLP116 CB DSNT NE SW-W MOV E P0000 60001 T02110206 58009
KIAH 220400Z 00000KT 2SM RA BR FEW007 BKN014CB OVC030 21/21 A2993 RMK AO2 OCNL LTGIC SE-S CB SE-S MOV E P0002 T02110206



Page loaded:  04:24 UTC  |   09:24 PM Pacific  |   10:24 PM Mountain  |   11:24 PM Central  |   12:24 AM Eastern

 

ADVISORIES

FORECASTS

FORECASTS

OBSERVATIONS

USER TOOLS

ABOUT US